Tiempo atmosférico en la estación meteorológica de Alpandeire, Málaga (680 m.)

Fecha
DESCASC
Temp. máxima en grados centígrados (hora)
DESCASC
Temp. mínima en grados centígrados (hora)
DESCASC
Temp. media en grados centígrados
DESCASC
Racha de viento máxima en m/sg (hora)
DESCASC
Velocidad máxima media en intervalos de 10 minutos(hora)
DESCASC
Precipitaciones diarias en mm
DESCASC
Precipitaciones de 00:00 a 06:00 en mm
DESCASC
Precipitaciones de 06:00 a 12:00 en mm
DESCASC
Precipitaciones de 12:00 a 18:00 en mm
DESCASC
Precipitaciones de 18:00 a 24:00 en mm
DESCASC
24-09-2017 28.4 (16:00) 17.2 (07:50) 22.8 7.22 (14:40) 4.17 (02:10) 0 0 0 0 0
23-09-2017 25.8 (17:30) 17.1 (08:00) 21.4 8.61 (06:20) 4.44 (11:30) 0 0 0 0 0
22-09-2017 26.4 (16:30) 15.3 (07:20) 20.8 8.33 (14:10) 4.17 (14:30) 0 0 0 0 0
21-09-2017 29.2 (17:00) 16.1 (00:00) 22.7 7.78 (14:00) 3.61 (13:10) 0 0 0 0 0
20-09-2017 28.2 (16:40) 16.2 (00:00) 22.2 8.61 (17:00) 4.17 (17:00) 0 0 0 0 0
19-09-2017 29.6 (16:40) 15 (00:00) 22.3 8.06 (01:30) 3.89 (01:30) 0 0 0 0 0
18-09-2017 28.4 (15:50) 13.4 (00:00) 20.9 9.44 (16:40) 5.28 (19:40) 0 0 0 0 0
17-09-2017 27.2 (16:10) 13.4 (00:00) 20.3 7.5 (15:30) 4.17 (16:40) 0 0 0 0 0
16-09-2017 25.2 (16:30) 11.8 (00:00) 18.5 8.89 (16:40) 5 (16:20) 0 0 0 0 0
15-09-2017 27.1 (16:00) 18.1 (00:00) 22.6 10.83 (15:10) 5.28 (15:00) 0 0 0 0 0
14-09-2017 32.4 (16:20) 18.2 (00:00) 25.3 9.17 (15:10) 4.72 (15:10) 0 0 0 0 0
13-09-2017 30.6 (17:40) 18.7 (00:00) 24.7 9.17 (13:40) 5.56 (05:00) 0 0 0 0 0
12-09-2017 35.2 (17:10) 22.1 (00:00) 28.7 8.89 (02:00) 4.17 (19:40) 0 0 0 0 0
11-09-2017 32.2 (18:10) 16.7 (00:00) 24.5 7.22 (15:20) 3.61 (15:00) 0 0 0 0 0
10-09-2017 27.3 (16:40) 13.5 (00:00) 20.4 10 (21:30) 5.56 (19:20) 0 0 0 0 0
09-09-2017 26.7 (12:20) 18 (00:00) 22.4 12.5 (17:40) 6.67 (17:10) 0 0 0 0 0
08-09-2017 31.7 (16:00) 17.9 (00:00) 24.8 7.78 (16:40) 3.89 (15:40) 0 0 0 0 0
07-09-2017 32.1 (16:00) 20.9 (00:00) 26.5 6.94 (03:30) 4.44 (05:40) 0 0 0 0 0
06-09-2017 32.5 (15:40) 18.9 (00:00) 25.7 6.39 (23:50) 3.89 (23:50) 0 0 0 0 0
05-09-2017 30.6 (18:00) 19.4 (00:00) 25 10.83 (12:40) 4.44 (15:50) 0 0 0 0 0
04-09-2017 32.6 (15:50) 20.5 (00:00) 26.5 9.17 (06:30) 5 (07:10) 0 0 0 0 0
03-09-2017 30.8 (16:40) 19.7 (00:00) 25.3 6.94 (16:40) 3.89 (17:00) 0 0 0 0 0
02-09-2017 27.6 (15:20) 19.7 (00:00) 23.7 10.28 (17:50) 5.28 (17:50) 0 0 0 0 0
01-09-2017 28.6 (16:20) 19.1 (00:00) 23.9 9.17 (17:20) 4.17 (15:20) 0 0 0 0 0
31-08-2017 30.3 (16:40) 16.9 (00:00) 23.6 7.5 (13:50) 3.33 (14:40) 0 0 0 0 0
30-08-2017 26.6 (16:00) 16.6 (00:00) 21.6 9.17 (17:00) 3.33 (17:00) 3.2 0 3.2 0 0
29-08-2017 24.5 (15:50) 13.7 (00:00) 19.1 6.11 (15:20) 3.33 (16:50) 0.6 0 0.6 0 0
28-08-2017 25.9 (18:10) 17.3 (00:00) 21.6 9.17 (03:10) 3.33 (03:10) 1.2 0 0.2 1 0
27-08-2017 29.3 (15:50) 21.8 (00:00) 25.5 10.28 (05:30) 5.83 (05:30) 3 0 0.2 2.8 0
26-08-2017 34.2 (16:50) 23.5 (00:00) 28.9 11.11 (23:40) 5 (23:20) 0 0 0 0 0

Gráficas

Temp. máximas Temp. mínimas Temp. medias Precipitaciones Rachas de viento máximas Velocidades máximas media en intervalos de 10 minutos

Datos horarios

Fecha y hora oficial Temperatura (ºC) Velocidad del viento (km/h) Dirección del viento Racha (km/h) Dirección de racha Precipitación (mm) Presión (hPa) Tendencia (hPa) Humedad (%)
2017-09-24 23:00:00 18.8 0 Calma 5 Sur 0 -- -- 80
2017-09-24 22:00:00 20 0 Calma 5 Sur 0 -- -- 77
2017-09-24 21:00:00 21.4 2 Sudoeste 6 Oeste 0 -- -- 71
2017-09-24 20:00:00 23.5 4 Noroeste 15 Oeste 0 -- -- 65
2017-09-24 19:00:00 25.7 9 Sudoeste 17 Oeste 0 -- -- 58
2017-09-24 18:00:00 28.1 9 Sudoeste 23 Sudoeste 0 -- -- 51
2017-09-24 17:00:00 28.1 10 Sudeste 24 Sudoeste 0 -- -- 50
2017-09-24 16:00:00 28.4 10 Sur 22 Sudoeste 0 -- -- 46
2017-09-24 15:00:00 26.7 10 Sudoeste 26 Sudoeste 0 -- -- 52
2017-09-24 14:00:00 26 12 Sur 24 Sur 0 -- -- 53
2017-09-24 13:00:00 25 12 Sur 24 Sur 0 -- -- 53
2017-09-24 12:00:00 23.5 9 Sudeste 21 Sudeste 0 -- -- 56
2017-09-24 11:00:00 21.3 10 Sudeste 25 Sudeste 0 -- -- 64
2017-09-24 10:00:00 19 7 Sur 17 Este 0 -- -- 70
2017-09-24 09:00:00 17.2 7 Este 19 Nordeste 0 -- -- 75
2017-09-24 08:00:00 17.2 3 Este 13 Este 0 -- -- 73
2017-09-24 07:00:00 17.7 3 Sudeste 18 Este 0 -- -- 74
2017-09-24 06:00:00 18 8 Este 21 Este 0 -- -- 71
2017-09-24 05:00:00 18.2 12 Este 21 Este 0 -- -- 71
2017-09-24 04:00:00 18.3 8 Este 20 Nordeste 0 -- -- 73
2017-09-24 03:00:00 18.1 8 Este 23 Este 0 -- -- 73
2017-09-24 02:00:00 17.6 13 Este 22 Nordeste 0 -- -- 77
2017-09-24 01:00:00 17.4 3 Sudoeste 10 Nordeste 0 -- -- 84
2017-09-24 00:00:00 17.8 2 Noroeste 10 Sur 0 -- -- 82
2017-09-23 23:00:00 18.2 3 Sudeste 18 Este 0 -- -- 79
2017-09-23 22:00:00 18.8 8 Este 15 Este 0 -- -- 77
2017-09-23 21:00:00 19.7 6 Este 16 Este 0 -- -- 74
2017-09-23 20:00:00 22 5 Sudeste 17 Sudeste 0 -- -- 66
2017-09-23 19:00:00 24.1 9 Sudeste 20 Sur 0 -- -- 59
2017-09-23 18:00:00 25.5 9 Sudeste 23 Sur 0 -- -- 54
2017-09-23 17:00:00 25.7 11 Sur 24 Sudeste 0 -- -- 53
2017-09-23 16:00:00 25.7 11 Este 27 Sur 0 -- -- 52
2017-09-23 15:00:00 25.1 15 Sur 29 Sur 0 -- -- 53
2017-09-23 14:00:00 24.8 10 Sur 28 Este 0 -- -- 54
2017-09-23 13:00:00 23.5 12 Sur 30 Sudeste 0 -- -- 58
2017-09-23 12:00:00 21.6 13 Sudeste 30 Sudeste 0 -- -- 63
2017-09-23 11:00:00 21 10 Sudeste 24 Sudeste 0 -- -- 62
2017-09-23 10:00:00 19 9 Este 21 Este 0 -- -- 70
2017-09-23 09:00:00 17.3 9 Este 20 Sudeste 0 -- -- 77
2017-09-23 08:00:00 17.1 9 Este 22 Este 0 -- -- 77
2017-09-23 07:00:00 17.4 8 Este 31 Este 0 -- -- 77
2017-09-23 06:00:00 17.6 7 Este 17 Sudeste 0 -- -- 78
2017-09-23 05:00:00 17.8 5 Este 14 Sudeste 0 -- -- 79
2017-09-23 04:00:00 18 3 Sudeste 14 Este 0 -- -- 76
2017-09-23 03:00:00 18.1 6 Este 22 Nordeste 0 -- -- 76
2017-09-23 02:00:00 17.8 5 Este 13 Sudeste 0 -- -- 79
2017-09-23 01:00:00 17.8 3 Este 13 Este 0 -- -- 77
2017-09-23 00:00:00 18.2 9 Este 19 Este 0 -- -- 72
2017-09-22 23:00:00 18 9 Este 19 Sudeste 0 -- -- 80
2017-09-22 22:00:00 18.5 4 Este 18 Este 0 -- -- 77
2017-09-22 21:00:00 19.4 3 Este 13 Sudeste 0 -- -- 71
2017-09-22 20:00:00 21.2 8 Sudeste 22 Sudeste 0 -- -- 64
2017-09-22 19:00:00 24.6 10 Sur 21 Sudoeste 0 -- -- 55
2017-09-22 18:00:00 25.5 10 Sudeste 28 Sur 0 -- -- 52
2017-09-22 17:00:00 26.1 11 Sudeste 28 Sudeste 0 -- -- 51
2017-09-22 16:00:00 26 13 Sudeste 28 Sudeste 0 -- -- 51
2017-09-22 15:00:00 25.5 13 Sudeste 30 Sur 0 -- -- 52
2017-09-22 14:00:00 25.6 11 Sur 30 Sur 0 -- -- 50
2017-09-22 13:00:00 25.2 10 Sur 23 Sudoeste 0 -- -- 45
2017-09-22 12:00:00 24.9 9 Sur 18 Sur 0 -- -- 35
2017-09-22 11:00:00 22.9 6 Sur 13 Sur 0 -- -- 38
2017-09-22 10:00:00 19.5 3 Sudoeste 10 Este 0 -- -- 41
2017-09-22 09:00:00 15.9 2 Nordeste 8 Nordeste 0 -- -- 47
2017-09-22 08:00:00 16.1 6 Nordeste 9 Nordeste 0 -- -- 46
2017-09-22 07:00:00 15.6 4 Nordeste 8 Este 0 -- -- 50
2017-09-22 06:00:00 15.5 0 Calma 4 Sudeste 0 -- -- 52
2017-09-22 05:00:00 16.1 2 Nordeste 3 Este 0 -- -- 58
2017-09-22 04:00:00 16.1 2 Este -- -- 0 -- -- 55
2017-09-22 03:00:00 16.8 3 Este 6 Nordeste 0 -- -- 61
2017-09-22 02:00:00 17.4 2 Nordeste 5 Este 0 -- -- 60
2017-09-22 01:00:00 18.1 0 Calma 5 Sur 0 -- -- 60
2017-09-22 00:00:00 18.8 0 Calma 5 Nordeste 0 -- -- 56
2017-09-21 23:00:00 19.5 2 Sur 5 Sur 0 -- -- 60
2017-09-21 22:00:00 20.3 0 Calma 5 Sudeste 0 -- -- 61
2017-09-21 21:00:00 21.8 3 Sur 7 Noroeste 0 -- -- 58
2017-09-21 20:00:00 24.2 4 Oeste 14 Sudoeste 0 -- -- 49
2017-09-21 19:00:00 27.6 6 Sur 16 Sudoeste 0 -- -- 36
2017-09-21 18:00:00 29 6 Sur 18 Sudoeste 0 -- -- 32
2017-09-21 17:00:00 29.2 8 Sudoeste 25 Sur 0 -- -- 32
2017-09-21 16:00:00 28.8 9 Sudoeste 22 Sur 0 -- -- 31
2017-09-21 15:00:00 28.5 10 Sur 24 Sur 0 -- -- 30
2017-09-21 14:00:00 27.1 12 Sur 28 Sudoeste 0 -- -- 31
2017-09-21 13:00:00 26.3 8 Sudoeste 21 Sur 0 -- -- 30
2017-09-21 12:00:00 25 9 Este 20 Sudeste 0 -- -- 32
2017-09-21 11:00:00 22.8 7 Sudeste 17 Sur 0 -- -- 36
2017-09-21 10:00:00 19.7 3 Sur 8 Este 0 -- -- 42
2017-09-21 09:00:00 17.5 4 Este 12 Este 0 -- -- 43
2017-09-21 08:00:00 18 5 Este 17 Este 0 -- -- 42
2017-09-21 07:00:00 17.3 4 Este 13 Este 0 -- -- 43
2017-09-21 06:00:00 18 4 Este 13 Este 0 -- -- 39
2017-09-21 05:00:00 17.6 7 Este 14 Este 0 -- -- 40
2017-09-21 04:00:00 16.3 4 Nordeste 5 Este 0 -- -- 45
2017-09-21 03:00:00 16.9 0 Calma 6 Oeste 0 -- -- 45
2017-09-21 02:00:00 16.7 2 Oeste 5 Noroeste 0 -- -- 50
2017-09-21 01:00:00 17.4 3 Noroeste 8 Nordeste 0 -- -- 57
2017-09-21 00:00:00 17.7 2 Sur 12 Este 0 -- -- 53
2017-09-20 23:00:00 18.5 0 Calma 10 Este 0 -- -- 57
2017-09-20 22:00:00 20.2 11 Este 18 Este 0 -- -- 52
2017-09-20 21:00:00 21.3 5 Este 17 Este 0 -- -- 51
2017-09-20 20:00:00 24 6 Este 16 Sudeste 0 -- -- 42
2017-09-20 19:00:00 25.7 8 Sudeste 18 Este 0 -- -- 38
2017-09-20 18:00:00 25 12 Sudeste 25 Sur 0 -- -- 38
2017-09-20 17:00:00 27.9 15 Sur 31 Sudoeste 0 -- -- 33
2017-09-20 16:00:00 27.4 14 Sur 31 Sur 0 -- -- 36
2017-09-20 15:00:00 28 11 Sur 27 Sudoeste 0 -- -- 33
2017-09-20 14:00:00 26.8 12 Sur 24 Sur 0 -- -- 36
2017-09-20 13:00:00 26.2 11 Sur 24 Sur 0 -- -- 36
2017-09-20 12:00:00 25 7 Sudeste 18 Sudeste 0 -- -- 40
2017-09-20 11:00:00 22.4 8 Sudeste 18 Este 0 -- -- 45
2017-09-20 10:00:00 20 6 Este 13 Este 0 -- -- 49
2017-09-20 09:00:00 16.8 0 Calma 13 Nordeste 0 -- -- 58
2017-09-20 08:00:00 16.3 2 Sudeste 7 Este 0 -- -- 59
2017-09-20 07:00:00 16.5 0 Calma 5 Este 0 -- -- 60
2017-09-20 06:00:00 16.6 0 Calma 4 Sudeste 0 -- -- 59
2017-09-20 05:00:00 16.8 0 Calma 5 Nordeste 0 -- -- 59
2017-09-20 04:00:00 16.7 0 Calma 6 Nordeste 0 -- -- 59
2017-09-20 03:00:00 16.8 3 Nordeste 5 Nordeste 0 -- -- 59
2017-09-20 02:00:00 17 0 Calma 3 Este 0 -- -- 59
2017-09-20 01:00:00 17.6 0 Calma 4 Este 0 -- -- 58
2017-09-20 00:00:00 18.2 0 Calma 7 Este 0 -- -- 55
2017-09-19 23:00:00 19.3 0 Calma 4 Noroeste 0 -- -- 52
2017-09-19 22:00:00 20.7 2 Nordeste 5 Este 0 -- -- 48
2017-09-19 21:00:00 22.4 0 Calma 9 Oeste 0 -- -- 45
2017-09-19 20:00:00 25 6 Oeste 16 Oeste 0 -- -- 40
2017-09-19 19:00:00 27.4 9 Sudoeste 21 Sudoeste 0 -- -- 36
2017-09-19 18:00:00 28.6 11 Sudoeste 21 Sudoeste 0 -- -- 35
2017-09-19 17:00:00 29.3 12 Oeste 22 Sudoeste 0 -- -- 33
2017-09-19 16:00:00 29.2 10 Sudoeste 23 Sudoeste 0 -- -- 32
2017-09-19 15:00:00 28.7 12 Sudoeste 28 Sudoeste 0 -- -- 32
2017-09-19 14:00:00 27.9 10 Oeste 21 Sudoeste 0 -- -- 33
2017-09-19 13:00:00 27.5 7 Sudoeste 19 Sudoeste 0 -- -- 32
2017-09-19 12:00:00 26 10 Sur 17 Sur 0 -- -- 34
2017-09-19 11:00:00 22.9 0 Calma 4 Noroeste 0 -- -- 40
2017-09-19 10:00:00 19.1 2 Este 5 Nordeste 0 -- -- 54
2017-09-19 09:00:00 15.4 2 Este 7 Este 0 -- -- 60
2017-09-19 08:00:00 15 4 Este 9 Nordeste 0 -- -- 61
2017-09-19 07:00:00 15.5 4 Nordeste 10 Nordeste 0 -- -- 59
2017-09-19 06:00:00 15.7 4 Este 8 Este 0 -- -- 61
2017-09-19 05:00:00 16.4 4 Nordeste 9 Nordeste 0 -- -- 61
2017-09-19 04:00:00 16.9 2 Nordeste 9 Nordeste 0 -- -- 64
2017-09-19 03:00:00 17.2 2 Nordeste 14 Oeste 0 -- -- 63
2017-09-19 02:00:00 18.7 5 Sudeste 29 Nordeste 0 -- -- 58
2017-09-19 01:00:00 18.6 7 Sudeste 16 Este 0 -- -- 60
2017-09-19 00:00:00 19.1 5 Noroeste 13 Oeste 0 -- -- 58
2017-09-18 23:00:00 19.4 2 Sudeste 6 Noroeste 0 -- -- 56
2017-09-18 22:00:00 20.2 0 Calma 10 Nordeste 0 -- -- 55
2017-09-18 21:00:00 21.2 2 Oeste 24 Oeste 0 -- -- 52
2017-09-18 20:00:00 23.6 11 Oeste 33 Oeste 0 -- -- 43
2017-09-18 19:00:00 25.6 15 Noroeste 31 Noroeste 0 -- -- 35
2017-09-18 18:00:00 27.1 7 Nordeste 32 Oeste 0 -- -- 32
2017-09-18 17:00:00 27.6 10 Norte 34 Noroeste 0 -- -- 29
2017-09-18 16:00:00 28.2 13 Nordeste 31 Nordeste 0 -- -- 22
2017-09-18 15:00:00 27.4 10 Oeste 27 Oeste 0 -- -- 24
2017-09-18 14:00:00 26.3 9 Oeste 24 Oeste 0 -- -- 23
2017-09-18 13:00:00 25.1 7 Oeste 21 Oeste 0 -- -- 26
2017-09-18 12:00:00 23.5 5 Noroeste 15 Oeste 0 -- -- 29
2017-09-18 11:00:00 21.7 7 Sur 22 Noroeste 0 -- -- 34
2017-09-18 10:00:00 19.7 6 Norte 15 Norte 0 -- -- 33
2017-09-18 09:00:00 17.8 7 Norte 23 Norte 0 -- -- 35
2017-09-18 08:00:00 14.1 0 Calma 6 Este 0 -- -- 54
2017-09-18 07:00:00 13.7 3 Nordeste 6 Este 0 -- -- 58
2017-09-18 06:00:00 14.2 2 Este 7 Nordeste 0 -- -- 61
2017-09-18 05:00:00 14.8 3 Nordeste 5 Este 0 -- -- 64
2017-09-18 04:00:00 14.9 5 Sudeste 6 Sudeste 0 -- -- 66
2017-09-18 03:00:00 15.6 2 Norte 5 Este 0 -- -- 65
2017-09-18 02:00:00 15.8 2 Este 6 Nordeste 0 -- -- 69
2017-09-18 01:00:00 16.2 0 Calma 5 Nordeste 0 -- -- 70
2017-09-18 00:00:00 16.9 4 Sudeste 6 Este 0 -- -- 68
2017-09-17 23:00:00 18.1 0 Calma 3 Norte 0 -- -- 63
2017-09-17 22:00:00 19.5 0 Calma 4 Norte 0 -- -- 61
2017-09-17 21:00:00 20.9 2 Noroeste 12 Oeste 0 -- -- 56
2017-09-17 20:00:00 23.6 7 Oeste 19 Sudoeste 0 -- -- 47
2017-09-17 19:00:00 25.4 11 Sudoeste 24 Sudoeste 0 -- -- 41
2017-09-17 18:00:00 26.5 13 Sudoeste 25 Sudoeste 0 -- -- 37
2017-09-17 17:00:00 27 14 Sudoeste 26 Sudoeste 0 -- -- 33
2017-09-17 16:00:00 27.1 14 Sudoeste 27 Oeste 0 -- -- 31
2017-09-17 15:00:00 26.5 12 Sudoeste 21 Sudoeste 0 -- -- 32
2017-09-17 14:00:00 25.7 9 Sudoeste 20 Oeste 0 -- -- 31
2017-09-17 13:00:00 24.2 8 Sudoeste 16 Sudoeste 0 -- -- 31
2017-09-17 12:00:00 22.2 9 Oeste 16 Sudoeste 0 -- -- 37
2017-09-17 11:00:00 20.6 7 Noroeste 11 Oeste 0 -- -- 41
2017-09-17 10:00:00 17.9 2 Sudeste 4 Este 0 -- -- 49
2017-09-17 09:00:00 14.1 0 Calma 4 Nordeste 0 -- -- 59
2017-09-17 08:00:00 13.6 0 Calma 5 Este 0 -- -- 57
2017-09-17 07:00:00 14 0 Calma 4 Nordeste 0 -- -- 54
2017-09-17 06:00:00 14.2 3 Nordeste 6 Nordeste 0 -- -- 52
2017-09-17 05:00:00 14.6 5 Nordeste 6 Nordeste 0 -- -- 51
2017-09-17 04:00:00 14.2 2 Este 4 Norte 0 -- -- 50
2017-09-17 03:00:00 14.9 0 Calma 4 Sudeste 0 -- -- 48
2017-09-17 02:00:00 15.3 0 Calma 5 Este 0 -- -- 50
2017-09-17 01:00:00 15.5 0 Calma 5 Nordeste 0 -- -- 53
2017-09-17 00:00:00 15.9 3 Nordeste 5 Este 0 -- -- 60
2017-09-16 23:00:00 16.6 3 Este 6 Nordeste 0 -- -- 60
2017-09-16 22:00:00 17.4 3 Sudeste 6 Este 0 -- -- 57
2017-09-16 21:00:00 18.7 3 Sur 10 Sudoeste 0 -- -- 56
2017-09-16 20:00:00 21.8 4 Oeste 18 Sudoeste 0 -- -- 46
2017-09-16 19:00:00 22.8 11 Oeste 26 Sudoeste 0 -- -- 44
2017-09-16 18:00:00 24.1 16 Oeste 32 Sudoeste 0 -- -- 35
2017-09-16 17:00:00 25 14 Oeste 32 Oeste 0 -- -- 34
2017-09-16 16:00:00 24.8 14 Oeste 30 Oeste 0 -- -- 33
2017-09-16 15:00:00 24 10 Oeste 26 Oeste 0 -- -- 36
2017-09-16 14:00:00 22.8 9 Oeste 22 Oeste 0 -- -- 38
2017-09-16 13:00:00 21 12 Noroeste 27 Oeste 0 -- -- 42
2017-09-16 12:00:00 19.6 8 Sudoeste 20 Oeste 0 -- -- 47
2017-09-16 11:00:00 17.5 5 Sudoeste 10 Sudoeste 0 -- -- 60
2017-09-16 10:00:00 14.8 4 Sur 8 Sur 0 -- -- 69
2017-09-16 09:00:00 12.1 0 Calma 3 Sur 0 -- -- 76
2017-09-16 08:00:00 11.9 0 Calma 2 Este 0 -- -- 74
2017-09-16 07:00:00 12.6 0 Calma 4 Noroeste 0 -- -- 71
2017-09-16 06:00:00 12.9 0 Calma 5 Norte 0 -- -- 66
2017-09-16 05:00:00 13.6 0 Calma 6 Norte 0 -- -- 60
2017-09-16 04:00:00 13.7 0 Calma 2 Este -- -- -- 51
2017-09-16 03:00:00 14.8 0 Calma 3 Este 0 -- -- 45
2017-09-16 02:00:00 16.3 0 Calma 6 Noroeste 0 -- -- 40
2017-09-16 01:00:00 16.8 0 Calma 13 Nordeste 0 -- -- 37
2017-09-16 00:00:00 18.6 10 Norte 15 Norte 0 -- -- 33
2017-09-15 23:00:00 18.4 6 Norte 13 Nordeste 0 -- -- 28
2017-09-15 22:00:00 18.2 2 Norte 8 Noroeste 0 -- -- 24
2017-09-15 21:00:00 19.7 4 Noroeste 24 Oeste 0 -- -- 21
2017-09-15 20:00:00 22.5 12 Oeste 25 Oeste 0 -- -- 19
2017-09-15 19:00:00 24.7 17 Oeste 26 Oeste 0 -- -- 18
2017-09-15 18:00:00 25.6 16 Oeste 29 Oeste 0 -- -- 16
2017-09-15 17:00:00 26.5 17 Oeste 31 Oeste 0 -- -- 15
2017-09-15 16:00:00 27.1 15 Oeste 39 Oeste 0 -- -- 14
2017-09-15 15:00:00 26.4 19 Oeste 33 Oeste 0 -- -- 15
2017-09-15 14:00:00 26.5 15 Oeste 36 Oeste 0 -- -- 19
2017-09-15 13:00:00 26.4 16 Oeste 33 Oeste 0 -- -- 18
2017-09-15 12:00:00 25.4 12 Oeste 36 Oeste 0 -- -- 27
2017-09-15 11:00:00 24.4 10 Oeste 22 Oeste 0 -- -- 35
2017-09-15 10:00:00 23 6 Oeste 18 Sudoeste 0 -- -- 43
2017-09-15 09:00:00 20.5 9 Sudeste 19 Sur 0 -- -- 45
2017-09-15 08:00:00 20 6 Sur 10 Sur 0 -- -- 40
2017-09-15 07:00:00 21.9 4 Sudoeste 16 Nordeste 0 -- -- 36
2017-09-15 06:00:00 21.1 4 Sudoeste 11 Sudeste 0 -- -- 39
2017-09-15 05:00:00 22.8 4 Noroeste 15 Oeste 0 -- -- 36
2017-09-15 04:00:00 21.9 4 Noroeste 12 Nordeste 0 -- -- 36
2017-09-15 03:00:00 21.1 3 Sudeste 8 Nordeste 0 -- -- 35
2017-09-15 02:00:00 20.6 2 Sudeste 5 Este 0 -- -- 37
2017-09-15 01:00:00 21.8 2 Sur 9 Sur 0 -- -- 40
2017-09-15 00:00:00 22.6 0 Calma 15 Noroeste 0 -- -- 39
2017-09-14 23:00:00 24.4 3 Sur 12 Sudoeste 0 -- -- 33
2017-09-14 22:00:00 25.8 4 Sudeste 27 Norte 0 -- -- 23
2017-09-14 21:00:00 25.9 3 Sudeste 11 Nordeste 0 -- -- 30
2017-09-14 20:00:00 27.2 11 Sudeste 20 Sudeste 0 -- -- 32
2017-09-14 19:00:00 28.1 4 Oeste 21 Oeste 0 -- -- 29
2017-09-14 18:00:00 28.9 13 Oeste 27 Oeste 0 -- -- 29
2017-09-14 17:00:00 31.5 15 Oeste 27 Oeste 0 -- -- 26
2017-09-14 16:00:00 31.7 14 Oeste 33 Oeste 0 -- -- 22
2017-09-14 15:00:00 31.5 17 Oeste 31 Oeste 0 -- -- 20
2017-09-14 14:00:00 30.9 12 Oeste 27 Noroeste 0 -- -- 21
2017-09-14 13:00:00 30.1 9 Sur 21 Sur 0 -- -- 28
2017-09-14 12:00:00 28.7 10 Sudoeste 17 Sudoeste 0 -- -- 32
2017-09-14 11:00:00 26.3 4 Sudoeste 9 Sudoeste 0 -- -- 39
2017-09-14 10:00:00 22.9 2 Sur 6 Este 0 -- -- 44
2017-09-14 09:00:00 19.1 0 Calma 6 Nordeste 0 -- -- 51
2017-09-14 08:00:00 19 3 Nordeste 8 Nordeste 0 -- -- 50
2017-09-14 07:00:00 18.2 0 Calma 6 Nordeste 0 -- -- 49
2017-09-14 06:00:00 18.6 0 Calma 4 Este 0 -- -- 47
2017-09-14 05:00:00 18.8 3 Este 7 Sur 0 -- -- 46
2017-09-14 04:00:00 19.5 4 Nordeste 9 Nordeste 0 -- -- 43
2017-09-14 03:00:00 19.6 2 Este 6 Este 0 -- -- 50
2017-09-14 02:00:00 20.3 0 Calma 13 Este 0 -- -- 56
2017-09-14 01:00:00 20.6 3 Nordeste 18 Este 0 -- -- 51
2017-09-14 00:00:00 19.9 0 Calma 4 Noroeste 0 -- -- 74
2017-09-13 23:00:00 20.6 0 Calma 9 Nordeste 0 -- -- 73
2017-09-13 22:00:00 21.8 0 Calma 5 Noroeste 0 -- -- 65
2017-09-13 21:00:00 23.3 4 Noroeste 10 Sudoeste 0 -- -- 62
2017-09-13 20:00:00 27.6 5 Sudeste 18 Nordeste 0 -- -- 45
2017-09-13 19:00:00 28.3 10 Nordeste 22 Nordeste 0 -- -- 46
2017-09-13 18:00:00 30.4 9 Sur 19 Sudoeste 0 -- -- 40
2017-09-13 17:00:00 30.1 8 Sudeste 24 Sudeste 0 -- -- 40
2017-09-13 16:00:00 29.4 10 Sudeste 27 Sudeste 0 -- -- 42
2017-09-13 15:00:00 28.5 10 Sur 26 Sudeste 0 -- -- 44
2017-09-13 14:00:00 27.7 11 Sudeste 33 Sur 0 -- -- 45
2017-09-13 13:00:00 26.4 14 Sur 27 Sur 0 -- -- 50
2017-09-13 12:00:00 25.2 14 Sudeste 31 Sudeste 0 -- -- 54
2017-09-13 11:00:00 23 9 Sudeste 25 Sur 0 -- -- 62
2017-09-13 10:00:00 20.9 8 Sur 17 Sur 0 -- -- 69
2017-09-13 09:00:00 18.7 3 Este 19 Este 0 -- -- 73
2017-09-13 08:00:00 19.5 4 Sudeste 23 Sudeste 0 -- -- 63
2017-09-13 07:00:00 19.2 5 Sur 19 Este 0 -- -- 55
2017-09-13 06:00:00 19.8 11 Este 28 Este 0 -- -- 51
2017-09-13 05:00:00 19.8 20 Este 30 Este 0 -- -- 50
2017-09-13 04:00:00 20.2 8 Sudeste 14 Este 0 -- -- 45
2017-09-13 03:00:00 21.5 11 Este 22 Este 0 -- -- 42
2017-09-13 02:00:00 21.8 5 Este 18 Este 0 -- -- 39
2017-09-13 01:00:00 22.7 4 Noroeste 10 Oeste 0 -- -- 33
2017-09-13 00:00:00 24.8 0 Calma 8 Norte 0 -- -- 27
2017-09-12 23:00:00 26.7 5 Sur 22 Nordeste 0 -- -- 25
2017-09-12 22:00:00 28.4 9 Norte 18 Norte 0 -- -- 23
2017-09-12 21:00:00 29.3 7 Norte 27 Noroeste 0 -- -- 20
2017-09-12 20:00:00 31.7 11 Norte 28 Nordeste 0 -- -- 17
2017-09-12 19:00:00 33.4 13 Norte 27 Nordeste 0 -- -- 15
2017-09-12 18:00:00 34.4 10 Nordeste 22 Nordeste 0 -- -- 15
2017-09-12 17:00:00 34.8 12 Nordeste 26 Noroeste 0 -- -- 16
2017-09-12 16:00:00 34.5 10 Norte 26 Nordeste 0 -- -- 16
2017-09-12 15:00:00 34 8 Norte 23 Nordeste 0 -- -- 17
2017-09-12 14:00:00 32.5 6 Noroeste 22 Nordeste 0 -- -- 21
2017-09-12 13:00:00 31.4 5 Noroeste 17 Norte 0 -- -- 25
2017-09-12 12:00:00 30.3 6 Sudeste 16 Sudeste 0 -- -- 25
2017-09-12 11:00:00 28.1 4 Norte 13 Este 0 -- -- 29
2017-09-12 10:00:00 25.4 3 Sudeste 17 Este 0 -- -- 35
2017-09-12 09:00:00 22.8 4 Sudeste 14 Nordeste 0 -- -- 38
2017-09-12 08:00:00 22.4 5 Nordeste 16 Nordeste 0 -- -- 39
2017-09-12 07:00:00 23.3 4 Nordeste 19 Nordeste 0 -- -- 37
2017-09-12 06:00:00 23.6 6 Noroeste 18 Nordeste 0 -- -- 36
2017-09-12 05:00:00 23.4 5 Noroeste 13 Noroeste 0 -- -- 36
2017-09-12 04:00:00 23.9 4 Noroeste 18 Noroeste 0 -- -- 34
2017-09-12 03:00:00 24.8 8 Noroeste 30 Este 0 -- -- 32
2017-09-12 02:00:00 26 12 Norte 32 Norte 0 -- -- 28
2017-09-12 01:00:00 23.8 6 Sur 27 Este 0 -- -- 33
2017-09-12 00:00:00 22.1 5 Este 12 Sudeste 0 -- -- 36
2017-09-11 23:00:00 21.8 2 Este 7 Nordeste 0 -- -- 38
2017-09-11 22:00:00 22.9 3 Noroeste 7 Nordeste 0 -- -- 36
2017-09-11 21:00:00 24.6 0 Calma 14 Noroeste 0 -- -- 33
2017-09-11 20:00:00 28 6 Noroeste 14 Oeste 0 -- -- 29
2017-09-11 19:00:00 31.1 6 Sudoeste 19 Sudoeste 0 -- -- 26
2017-09-11 18:00:00 32.1 9 Sudoeste 21 Sudoeste 0 -- -- 25
2017-09-11 17:00:00 31.9 10 Sudoeste 21 Sudoeste 0 -- -- 26
2017-09-11 16:00:00 31.6 8 Sudoeste 26 Sudoeste 0 -- -- 27
2017-09-11 15:00:00 31.6 13 Sudoeste 23 Sudoeste 0 -- -- 23
2017-09-11 14:00:00 30.1 5 Oeste 17 Oeste 0 -- -- 22
2017-09-11 13:00:00 28.5 8 Oeste 15 Oeste 0 -- -- 23
2017-09-11 12:00:00 27.6 4 Sur 14 Sur 0 -- -- 25
2017-09-11 11:00:00 24.7 5 Sur 10 Sudoeste 0 -- -- 29
2017-09-11 10:00:00 20.8 0 Calma 7 Este 0 -- -- 36
2017-09-11 09:00:00 17.3 3 Este 6 Nordeste 0 -- -- 39
2017-09-11 08:00:00 16.9 2 Este 9 Nordeste 0 -- -- 38
2017-09-11 07:00:00 16.9 0 Calma 8 Nordeste 0 -- -- 40
2017-09-11 06:00:00 17.4 0 Calma 6 Nordeste 0 -- -- 38
2017-09-11 05:00:00 17.9 4 Nordeste 10 Nordeste 0 -- -- 39
2017-09-11 04:00:00 18.1 0 Calma 7 Norte 0 -- -- 38
2017-09-11 03:00:00 18.8 4 Norte 8 Sur 0 -- -- 37
2017-09-11 02:00:00 18.9 3 Norte 10 Nordeste 0 -- -- 36
2017-09-11 01:00:00 19.2 6 Nordeste 10 Nordeste 0 -- -- 35
2017-09-11 00:00:00 19.3 3 Nordeste 8 Nordeste 0 -- -- 35
2017-09-10 23:00:00 20 3 Norte 8 Nordeste 0 -- -- 33
2017-09-10 22:00:00 21.3 0 Calma 36 Norte 0 -- -- 32
2017-09-10 21:00:00 23 13 Norte 30 Norte 0 -- -- 29
2017-09-10 20:00:00 24.7 17 Norte 34 Nordeste 0 -- -- 26
2017-09-10 19:00:00 25.7 17 Norte 33 Norte 0 -- -- 27
2017-09-10 18:00:00 26.2 16 Norte 31 Nordeste 0 -- -- 27
2017-09-10 17:00:00 26.7 14 Norte 31 Nordeste 0 -- -- 26
2017-09-10 16:00:00 27.1 9 Norte 27 Nordeste 0 -- -- 22
2017-09-10 15:00:00 26.3 11 Nordeste 25 Este 0 -- -- 22
2017-09-10 14:00:00 25.2 11 Nordeste 24 Este 0 -- -- 26
2017-09-10 13:00:00 23 9 Norte 22 Noroeste 0 -- -- 27
2017-09-10 12:00:00 22.5 7 Nordeste 18 Este 0 -- -- 26
2017-09-10 11:00:00 20.6 7 Este 26 Noroeste 0 -- -- 35
2017-09-10 10:00:00 16.7 5 Sudoeste 14 Sur 0 -- -- 53
2017-09-10 09:00:00 13.5 3 Sudeste 10 Sudoeste 0 -- -- 63
2017-09-10 08:00:00 14 3 Sudoeste 20 Oeste 0 -- -- 61
2017-09-10 07:00:00 14.7 7 Noroeste 18 Nordeste 0 -- -- 59
2017-09-10 06:00:00 14.6 10 Sudoeste 22 Noroeste 0 -- -- 61
2017-09-10 05:00:00 15.6 12 Norte 28 Nordeste 0 -- -- 57
2017-09-10 04:00:00 16 6 Nordeste 19 Norte 0 -- -- 57
2017-09-10 03:00:00 16.9 10 Nordeste 24 Nordeste 0 -- -- 56
2017-09-10 02:00:00 17.6 3 Nordeste 21 Noroeste 0 -- -- 56
2017-09-10 01:00:00 18.3 5 Noroeste 23 Noroeste 0 -- -- 60
2017-09-10 00:00:00 18.3 6 Noroeste 21 Oeste 0 -- -- 69
2017-09-09 23:00:00 18.3 13 Oeste 27 Oeste 0 -- -- 71
2017-09-09 22:00:00 18.9 12 Oeste 28 Oeste 0 -- -- 69
2017-09-09 21:00:00 19.8 14 Oeste 35 Oeste 0 -- -- 64
2017-09-09 20:00:00 21.9 20 Oeste 40 Oeste 0 -- -- 58
2017-09-09 19:00:00 23.2 20 Noroeste 41 Oeste 0 -- -- 50
2017-09-09 18:00:00 24.3 19 Oeste 45 Oeste 0 -- -- 46
2017-09-09 17:00:00 23.9 19 Oeste 34 Oeste 0 -- -- 48
2017-09-09 16:00:00 24.1 11 Oeste 27 Oeste 0 -- -- 45
2017-09-09 15:00:00 24.6 7 Oeste 27 Oeste 0 -- -- 39
2017-09-09 14:00:00 25.4 15 Oeste 34 Oeste 0 -- -- 30
2017-09-09 13:00:00 26 17 Oeste 31 Oeste 0 -- -- 22
2017-09-09 12:00:00 26.4 14 Oeste 30 Oeste 0 -- -- 14
2017-09-09 11:00:00 25.4 11 Oeste 29 Oeste 0 -- -- 17
2017-09-09 10:00:00 23.6 5 Sudoeste 20 Oeste 0 -- -- 20
2017-09-09 09:00:00 20.9 3 Sur 11 Sudeste 0 -- -- 25
2017-09-09 08:00:00 20.3 3 Sudeste 11 Nordeste 0 -- -- 29
2017-09-09 07:00:00 21.3 7 Nordeste 13 Norte 0 -- -- 27
2017-09-09 06:00:00 22.5 6 Norte 17 Norte 0 -- -- 28
2017-09-09 05:00:00 19.8 2 Norte 6 Noroeste 0 -- -- 41
2017-09-09 04:00:00 20 3 Nordeste 5 Norte 0 -- -- 39
2017-09-09 03:00:00 20.1 0 Calma 5 Este 0 -- -- 50
2017-09-09 02:00:00 20.3 3 Este 10 Nordeste 0 -- -- 51
2017-09-09 01:00:00 21.2 4 Nordeste 6 Este 0 -- -- 53
2017-09-09 00:00:00 21.9 2 Este 6 Nordeste 0 -- -- 50
2017-09-08 23:00:00 22.9 3 Nordeste 9 Noroeste 0 -- -- 64
2017-09-08 22:00:00 23.9 3 Nordeste 8 Nordeste 0 -- -- 62
2017-09-08 21:00:00 25 3 Noroeste 9 Oeste 0 -- -- 59
2017-09-08 20:00:00 28.2 5 Oeste 14 Oeste 0 -- -- 52
2017-09-08 19:00:00 30.6 6 Sudoeste 18 Sudoeste 0 -- -- 46
2017-09-08 18:00:00 31.3 11 Sudoeste 23 Sudoeste 0 -- -- 44
2017-09-08 17:00:00 31.1 13 Sudoeste 28 Sudoeste 0 -- -- 45
2017-09-08 16:00:00 31.7 12 Sudoeste 23 Sudoeste 0 -- -- 44
2017-09-08 15:00:00 31.4 12 Sudoeste 19 Sur 0 -- -- 43
2017-09-08 14:00:00 30.2 10 Oeste 17 Oeste 0 -- -- 42
2017-09-08 13:00:00 28.9 7 Sudoeste 14 Sudoeste 0 -- -- 41
2017-09-08 12:00:00 27.1 6 Sur 11 Sudoeste 0 -- -- 43
2017-09-08 11:00:00 24.3 4 Sudoeste 8 Oeste 0 -- -- 55
2017-09-08 10:00:00 20.7 3 Oeste 5 Oeste 0 -- -- 67
2017-09-08 09:00:00 18.4 0 Calma 4 Nordeste 0 -- -- 73
2017-09-08 08:00:00 18.1 0 Calma 4 Este 0 -- -- 75
2017-09-08 07:00:00 18.6 2 Este 5 Este 0 -- -- 79
2017-09-08 06:00:00 18.9 0 Calma 4 Este 0 -- -- 83
2017-09-08 05:00:00 19.1 0 Calma 4 Este 0 -- -- 86
2017-09-08 04:00:00 19.4 0 Calma 4 Noroeste 0 -- -- 87
2017-09-08 03:00:00 19.7 0 Calma 4 Nordeste 0 -- -- 85
2017-09-08 02:00:00 20 0 Calma 4 Sur 0 -- -- 84
2017-09-08 01:00:00 21 2 Sur 4 Sur 0 -- -- 79
2017-09-08 00:00:00 21.5 0 Calma 4 Este 0 -- -- 80
2017-09-07 23:00:00 22.2 0 Calma 6 Sur 0 -- -- 75
2017-09-07 22:00:00 23.2 0 Calma 5 Sudoeste 0 -- -- 73
2017-09-07 21:00:00 24.8 0 Calma 9 Oeste 0 -- -- 67
2017-09-07 20:00:00 27.4 5 Oeste 15 Sudoeste 0 -- -- 59
2017-09-07 19:00:00 29.7 6 Sudoeste 19 Sudoeste 0 -- -- 53
2017-09-07 18:00:00 30.3 11 Oeste 23 Sudoeste 0 -- -- 51
2017-09-07 17:00:00 31.1 13 Sudoeste 24 Sudoeste 0 -- -- 49
2017-09-07 16:00:00 32.1 10 Sur 24 Sur 0 -- -- 45
2017-09-07 15:00:00 31.5 8 Este 21 Sur 0 -- -- 43
2017-09-07 14:00:00 30.1 11 Sudoeste 22 Sur 0 -- -- 40
2017-09-07 13:00:00 29.5 8 Sudoeste 17 Sur 0 -- -- 36
2017-09-07 12:00:00 28.2 6 Sur 17 Sur 0 -- -- 37
2017-09-07 11:00:00 25.8 8 Sur 16 Sudoeste 0 -- -- 39
2017-09-07 10:00:00 23 4 Sudoeste 9 Oeste 0 -- -- 43
2017-09-07 09:00:00 20.9 0 Calma 18 Este 0 -- -- 45
2017-09-07 08:00:00 21 4 Este 12 Este 0 -- -- 44
2017-09-07 07:00:00 22.5 9 Este 22 Este 0 -- -- 39
2017-09-07 06:00:00 22.9 12 Este 24 Nordeste 0 -- -- 39
2017-09-07 05:00:00 22.8 12 Este 20 Este 0 -- -- 40
2017-09-07 04:00:00 22.7 10 Este 25 Este 0 -- -- 41
2017-09-07 03:00:00 22.6 13 Este 23 Este 0 -- -- 44
2017-09-07 02:00:00 22.5 12 Este 22 Este 0 -- -- 45
2017-09-07 01:00:00 23.2 15 Este 23 Este 0 -- -- 42
2017-09-07 00:00:00 23.2 13 Nordeste 23 Este 0 -- -- 44
2017-09-06 23:00:00 22.7 2 Sur 7 Nordeste 0 -- -- 48
2017-09-06 22:00:00 24 4 Oeste 10 Este 0 -- -- 45
2017-09-06 21:00:00 25.4 4 Sudeste 16 Este 0 -- -- 43
2017-09-06 20:00:00 28.4 8 Este 17 Sudeste 0 -- -- 38
2017-09-06 19:00:00 30.6 6 Este 18 Sur 0 -- -- 36
2017-09-06 18:00:00 31.6 8 Sudeste 21 Este 0 -- -- 36
2017-09-06 17:00:00 32 10 Sudeste 23 Sudeste 0 -- -- 37
2017-09-06 16:00:00 32.5 9 Sudeste 22 Sur 0 -- -- 37
2017-09-06 15:00:00 32 12 Sudeste 22 Este 0 -- -- 40
2017-09-06 14:00:00 31.4 9 Sudeste 21 Sur 0 -- -- 40
2017-09-06 13:00:00 30.2 9 Sudoeste 20 Sur 0 -- -- 38
2017-09-06 12:00:00 29.3 8 Sur 18 Sur 0 -- -- 35
2017-09-06 11:00:00 26.8 6 Sudoeste 11 Sudoeste 0 -- -- 40
2017-09-06 10:00:00 22.9 0 Calma 4 Este 0 -- -- 46
2017-09-06 09:00:00 19.4 2 Este 4 Este 0 -- -- 55
2017-09-06 08:00:00 18.9 0 Calma 4 Este 0 -- -- 54
2017-09-06 07:00:00 19.4 0 Calma 5 Este 0 -- -- 57
2017-09-06 06:00:00 19.3 3 Nordeste 5 Este 0 -- -- 58
2017-09-06 05:00:00 19.6 4 Nordeste 6 Nordeste 0 -- -- 57
2017-09-06 04:00:00 19.3 0 Calma 4 Este 0 -- -- 71
2017-09-06 03:00:00 19.6 0 Calma 4 Oeste 0 -- -- 79
2017-09-06 02:00:00 20.1 2 Noroeste 5 Este 0 -- -- 82
2017-09-06 01:00:00 20.5 0 Calma 3 Sur 0 -- -- 83
2017-09-06 00:00:00 21 0 Calma 3 Oeste 0 -- -- 84
2017-09-05 23:00:00 21.8 0 Calma 8 Sur 0 -- -- 81
2017-09-05 22:00:00 23 2 Sur 5 Sur 0 -- -- 75
2017-09-05 21:00:00 24.5 3 Oeste 9 Oeste 0 -- -- 68
2017-09-05 20:00:00 27.9 5 Oeste 16 Oeste 0 -- -- 56
2017-09-05 19:00:00 30.3 8 Sur 22 Sudeste 0 -- -- 49
2017-09-05 18:00:00 30.6 6 Sudeste 24 Sudeste 0 -- -- 46
2017-09-05 17:00:00 29.9 8 Sudeste 24 Este 0 -- -- 51
2017-09-05 16:00:00 29 13 Sudeste 29 Sudeste 0 -- -- 56
2017-09-05 15:00:00 29.1 14 Sudeste 31 Sudeste 0 -- -- 56
2017-09-05 14:00:00 28.5 13 Sudeste 27 Sur 0 -- -- 55
2017-09-05 13:00:00 27.3 12 Sur 39 Sur 0 -- -- 58
2017-09-05 12:00:00 27.3 9 Sudeste 22 Sudeste 0 -- -- 56
2017-09-05 11:00:00 25.6 11 Sudeste 19 Este 0 -- -- 56
2017-09-05 10:00:00 23.1 6 Sur 13 Sur 0 -- -- 60
2017-09-05 09:00:00 19.6 0 Calma 5 Este 0 -- -- 64
2017-09-05 08:00:00 19.4 2 Este 5 Nordeste 0 -- -- 62
2017-09-05 07:00:00 20.2 2 Norte 8 Este 0 -- -- 58
2017-09-05 06:00:00 20.7 3 Norte 7 Este 0 -- -- 55
2017-09-05 05:00:00 20.9 4 Este 8 Este 0 -- -- 57
2017-09-05 04:00:00 21.1 2 Nordeste 6 Nordeste 0 -- -- 57
2017-09-05 03:00:00 21.8 2 Nordeste 9 Nordeste 0 -- -- 55
2017-09-05 02:00:00 22.2 5 Nordeste 10 Nordeste 0 -- -- 54
2017-09-05 01:00:00 22.1 2 Sudeste 8 Este 0 -- -- 53
2017-09-05 00:00:00 22.5 5 Nordeste 10 Nordeste 0 -- -- 52
2017-09-04 23:00:00 23.4 4 Este 10 Sudeste 0 -- -- 50
2017-09-04 22:00:00 24.5 5 Sur 10 Oeste 0 -- -- 47
2017-09-04 21:00:00 26.5 5 Noroeste 19 Oeste 0 -- -- 41
2017-09-04 20:00:00 29 9 Oeste 26 Oeste 0 -- -- 37
2017-09-04 19:00:00 30.4 13 Noroeste 28 Oeste 0 -- -- 32
2017-09-04 18:00:00 32.2 9 Norte 25 Noroeste 0 -- -- 26
2017-09-04 17:00:00 31.3 13 Noroeste 28 Noroeste 0 -- -- 29
2017-09-04 16:00:00 32.6 13 Nordeste 31 Nordeste 0 -- -- 27
2017-09-04 15:00:00 31.9 15 Nordeste 29 Nordeste 0 -- -- 27
2017-09-04 14:00:00 31.3 12 Nordeste 25 Nordeste 0 -- -- 26
2017-09-04 13:00:00 30.5 10 Nordeste 25 Norte 0 -- -- 26
2017-09-04 12:00:00 28.8 13 Noroeste 27 Oeste 0 -- -- 27
2017-09-04 11:00:00 27.4 9 Oeste 22 Oeste 0 -- -- 31
2017-09-04 10:00:00 25 3 Sudoeste 12 Noroeste 0 -- -- 38
2017-09-04 09:00:00 22.3 4 Nordeste 11 Norte 0 -- -- 41
2017-09-04 08:00:00 23.8 6 Noroeste 30 Norte 0 -- -- 33
2017-09-04 07:00:00 24.3 11 Nordeste 33 Norte 0 -- -- 31
2017-09-04 06:00:00 24.5 14 Nordeste 30 Nordeste 0 -- -- 29
2017-09-04 05:00:00 23 9 Norte 23 Norte 0 -- -- 42
2017-09-04 04:00:00 20.5 3 Este 6 Nordeste 0 -- -- 70
2017-09-04 03:00:00 20.9 0 Calma 6 Norte 0 -- -- 69
2017-09-04 02:00:00 21.3 0 Calma 7 Norte 0 -- -- 72
2017-09-04 01:00:00 21.4 0 Calma 5 Nordeste 0 -- -- 74
2017-09-04 00:00:00 21.5 2 Norte 4 Norte 0 -- -- 72
2017-09-03 23:00:00 22.1 0 Calma 3 Norte 0 -- -- 68
2017-09-03 22:00:00 23.1 0 Calma 6 Sudoeste 0 -- -- 66
2017-09-03 21:00:00 24.7 3 Sudoeste 10 Sudoeste 0 -- -- 62
2017-09-03 20:00:00 26.7 8 Sudoeste 16 Sudoeste 0 -- -- 58
2017-09-03 19:00:00 30.1 8 Sudoeste 18 Sudoeste 0 -- -- 50
2017-09-03 18:00:00 29.8 11 Sudoeste 24 Oeste 0 -- -- 51
2017-09-03 17:00:00 30.6 14 Sudoeste 25 Sudoeste 0 -- -- 48
2017-09-03 16:00:00 30.4 10 Sudoeste 21 Sudoeste 0 -- -- 48
2017-09-03 15:00:00 29.1 6 Sudeste 21 Sudoeste 0 -- -- 51
2017-09-03 14:00:00 27.8 6 Sudeste 23 Sur 0 -- -- 53
2017-09-03 13:00:00 26.8 8 Sudeste 19 Sudeste 0 -- -- 55
2017-09-03 12:00:00 25.5 12 Sudeste 22 Sudeste 0 -- -- 58
2017-09-03 11:00:00 24 9 Sudeste 24 Este 0 -- -- 62
2017-09-03 10:00:00 22.2 5 Este 19 Este 0 -- -- 66
2017-09-03 09:00:00 20.4 8 Este 18 Este 0 -- -- 69
2017-09-03 08:00:00 20 5 Este 18 Nordeste 0 -- -- 71
2017-09-03 07:00:00 20.3 6 Este 21 Este 0 -- -- 68
2017-09-03 06:00:00 20.4 7 Este 23 Este 0 -- -- 69
2017-09-03 05:00:00 20.5 10 Este 22 Este 0 -- -- 70
2017-09-03 04:00:00 19.8 5 Este 12 Este 0 -- -- 78
2017-09-03 03:00:00 19.8 5 Este 16 Sur 0 -- -- 80
2017-09-03 02:00:00 20.4 5 Sudeste 15 Este 0 -- -- 78
2017-09-03 01:00:00 20.6 4 Sudeste 14 Este 0 -- -- 78
2017-09-03 00:00:00 20.7 3 Este 21 Sudeste 0 -- -- 76
2017-09-02 23:00:00 21.2 4 Sudeste 17 Este 0 -- -- 73
2017-09-02 22:00:00 21.6 4 Este 14 Este 0 -- -- 74
2017-09-02 21:00:00 23.1 4 Este 17 Este 0 -- -- 69
2017-09-02 20:00:00 25.5 6 Sudeste 23 Sudeste 0 -- -- 61
2017-09-02 19:00:00 26.6 9 Sudeste 27 Sudoeste 0 -- -- 57
2017-09-02 18:00:00 26.6 17 Sur 37 Sur 0 -- -- 57
2017-09-02 17:00:00 27.2 15 Sudeste 35 Sur 0 -- -- 56
2017-09-02 16:00:00 27 17 Sudeste 33 Sudeste 0 -- -- 57
2017-09-02 15:00:00 27.2 11 Sudeste 35 Sur 0 -- -- 56
2017-09-02 14:00:00 26.8 14 Sudeste 35 Sudeste 0 -- -- 57
2017-09-02 13:00:00 25.9 12 Sudeste 35 Sur 0 -- -- 57
2017-09-02 12:00:00 25.1 14 Sudeste 31 Este 0 -- -- 61
2017-09-02 11:00:00 23.2 14 Sudeste 31 Este 0 -- -- 68
2017-09-02 10:00:00 21.7 10 Este 30 Sudeste 0 -- -- 77
2017-09-02 09:00:00 20.8 8 Sudeste 21 Sudeste 0 -- -- 81
2017-09-02 08:00:00 20.6 8 Sudeste 22 Este 0 -- -- 85
2017-09-02 07:00:00 20.3 5 Sudeste 19 Este 0 -- -- 84
2017-09-02 06:00:00 19.8 3 Nordeste 11 Este 0 -- -- 86
2017-09-02 05:00:00 20.2 6 Este 16 Este 0 -- -- 84
2017-09-02 04:00:00 20.6 4 Sudeste 17 Nordeste 0 -- -- 79
2017-09-02 03:00:00 20.2 6 Este 13 Este 0 -- -- 82
2017-09-02 02:00:00 20.4 5 Este 17 Este 0 -- -- 82
2017-09-02 01:00:00 20.5 6 Este 22 Nordeste 0 -- -- 80
2017-09-02 00:00:00 20.6 7 Este 21 Este 0 -- -- 79
2017-09-01 23:00:00 20.8 4 Este 12 Este 0 -- -- 78
2017-09-01 22:00:00 21.2 4 Nordeste 17 Sudeste 0 -- -- 77
2017-09-01 21:00:00 22.3 5 Sudeste 18 Este 0 -- -- 71
2017-09-01 20:00:00 24.8 10 Sudeste 22 Sudeste 0 -- -- 63
2017-09-01 19:00:00 26.5 10 Sudeste 28 Sudeste 0 -- -- 59
2017-09-01 18:00:00 27.7 12 Sudeste 33 Sur 0 -- -- 55
2017-09-01 17:00:00 27.9 13 Sur 30 Este 0 -- -- 55
2017-09-01 16:00:00 28.5 15 Sur 28 Este 0 -- -- 52
2017-09-01 15:00:00 28.3 11 Sur 28 Sudoeste 0 -- -- 51
2017-09-01 14:00:00 27.9 11 Sur 28 Sudoeste 0 -- -- 49
2017-09-01 13:00:00 27.2 13 Sur 24 Sur 0 -- -- 51
2017-09-01 12:00:00 26 11 Sudeste 24 Sur 0 -- -- 56
2017-09-01 11:00:00 23.8 12 Sudeste 21 Sudeste 0 -- -- 62
2017-09-01 10:00:00 22.1 3 Sudeste 14 Este 0 -- -- 65
2017-09-01 09:00:00 20.1 0 Calma 13 Este 0 -- -- 72
2017-09-01 08:00:00 20 6 Nordeste 22 Nordeste 0 -- -- 71
2017-09-01 07:00:00 19.7 5 Este 13 Nordeste 0 -- -- 74
2017-09-01 06:00:00 19.4 0 Calma 8 Este 0 -- -- 76
2017-09-01 05:00:00 19.9 2 Este 14 Nordeste 0 -- -- 75
2017-09-01 04:00:00 20.2 6 Nordeste 12 Nordeste 0 -- -- 75
2017-09-01 03:00:00 20.3 2 Este 11 Este 0 -- -- 74
2017-09-01 02:00:00 20.2 4 Este 18 Este 0 -- -- 73
2017-09-01 01:00:00 20.6 5 Este 19 Nordeste 0 -- -- 74
2017-09-01 00:00:00 21 6 Este 17 Nordeste 0 -- -- 72
2017-08-31 23:00:00 21.5 6 Nordeste 16 Nordeste 0 -- -- 70
2017-08-31 22:00:00 21.9 3 Sudeste 12 Este 0 -- -- 64
2017-08-31 21:00:00 23.2 6 Este 16 Este 0 -- -- 59
2017-08-31 20:00:00 26.3 9 Sudeste 20 Sudeste 0 -- -- 50
2017-08-31 19:00:00 28.3 9 Sudeste 21 Este 0 -- -- 47
2017-08-31 18:00:00 29 9 Sudeste 26 Sudeste 0 -- -- 45
2017-08-31 17:00:00 29.9 12 Sudeste 22 Sudeste 0 -- -- 43
2017-08-31 16:00:00 30.1 7 Sudeste 22 Sudoeste 0 -- -- 42
2017-08-31 15:00:00 28.9 11 Sur 26 Sur 0 -- -- 46
2017-08-31 14:00:00 28.3 11 Sur 27 Oeste 0 -- -- 47
2017-08-31 13:00:00 26.8 8 Sur 21 Sur 0 -- -- 50
2017-08-31 12:00:00 25.5 12 Sur 21 Sur 0 -- -- 53
2017-08-31 11:00:00 23.3 6 Sudoeste 12 Sudoeste 0 -- -- 61
2017-08-31 10:00:00 20.4 3 Oeste 6 Oeste 0 -- -- 70
2017-08-31 09:00:00 18.2 0 Calma 9 Este 0 -- -- 76
2017-08-31 08:00:00 17.7 0 Calma 5 Este 0 -- -- 77
2017-08-31 07:00:00 17.3 2 Nordeste 5 Este 0 -- -- 77
2017-08-31 06:00:00 17.5 0 Calma 6 Nordeste 0 -- -- 76
2017-08-31 05:00:00 17.8 4 Nordeste 7 Nordeste 0 -- -- 75
2017-08-31 04:00:00 17.2 0 Calma 7 Nordeste 0 -- -- 79
2017-08-31 03:00:00 17.2 3 Nordeste 5 Nordeste 0 -- -- 81
2017-08-31 02:00:00 17.4 2 Noroeste 8 Nordeste 0 -- -- 82
2017-08-31 01:00:00 17.4 2 Este 6 Nordeste 0 -- -- 84
2017-08-31 00:00:00 17.5 2 Noroeste 4 Este 0 -- -- 85
2017-08-30 23:00:00 17.9 0 Calma 5 Oeste 0 -- -- 82
2017-08-30 22:00:00 18.4 2 Sudeste 12 Sudeste 0 -- -- 81
2017-08-30 21:00:00 19.3 3 Sudeste 13 Este 0 -- -- 77
2017-08-30 20:00:00 20.9 4 Sur 21 Sudeste 0 -- -- 70
2017-08-30 19:00:00 23.1 5 Este 19 Este 0 -- -- 63
2017-08-30 18:00:00 23.6 9 Este 23 Este 0 -- -- 60
2017-08-30 17:00:00 23.8 12 Sudeste 33 Sudeste 0 -- -- 58
2017-08-30 16:00:00 26.6 7 Sudoeste 24 Sur 0 -- -- 49
2017-08-30 15:00:00 25.7 9 Sudeste 27 Sur 0 -- -- 50
2017-08-30 14:00:00 24.3 8 Oeste 17 Oeste 0 -- -- 52
2017-08-30 13:00:00 22.4 6 Noroeste 14 Noroeste 0 -- -- 58
2017-08-30 12:00:00 21.3 5 Noroeste 11 Noroeste 0 -- -- 63
2017-08-30 11:00:00 19.7 3 Sur 8 Noroeste 0 -- -- 79
2017-08-30 10:00:00 18.2 3 Sur 9 Sudeste 0 -- -- 82
2017-08-30 09:00:00 16.7 4 Nordeste 13 Este 2.6 -- -- 86
2017-08-30 08:00:00 16.8 2 Sudeste 6 Sudoeste 0.6 -- -- 88
2017-08-30 07:00:00 16.8 2 Noroeste 9 Este 0 -- -- 83
2017-08-30 06:00:00 17.2 4 Este 9 Este 0 -- -- 81
2017-08-30 05:00:00 17.2 3 Nordeste 11 Nordeste 0 -- -- 79
2017-08-30 04:00:00 17 5 Este 11 Oeste 0 -- -- 78
2017-08-30 03:00:00 17 0 Calma 5 Norte 0 -- -- 79
2017-08-30 02:00:00 16.7 2 Nordeste 7 Norte 0 -- -- 79
2017-08-30 01:00:00 17 0 Calma 9 Este 0 -- -- 79
2017-08-30 00:00:00 17.4 3 Este 10 Este 0 -- -- 75
2017-08-29 23:00:00 17.8 0 Calma 5 Este 0 -- -- 73
2017-08-29 22:00:00 18.6 2 Este 8 Oeste 0 -- -- 71
2017-08-29 21:00:00 19.8 2 Sudoeste 13 Sudoeste 0 -- -- 69
2017-08-29 20:00:00 21.2 7 Sudoeste 15 Sudoeste 0 -- -- 65
2017-08-29 19:00:00 21.5 5 Sudoeste 20 Sudoeste 0 -- -- 64
2017-08-29 18:00:00 22.2 9 Sudoeste 22 Sudoeste 0 -- -- 61
2017-08-29 17:00:00 23.4 12 Oeste 19 Noroeste 0 -- -- 54
2017-08-29 16:00:00 23.7 10 Sudoeste 22 Sudoeste 0 -- -- 53
2017-08-29 15:00:00 23 6 Sudoeste 19 Sudoeste 0 -- -- 56
2017-08-29 14:00:00 19.5 4 Noroeste 12 Oeste 0 -- -- 73
2017-08-29 13:00:00 19.4 5 Norte 12 Sur 0 -- -- 72
2017-08-29 12:00:00 17 3 Sudoeste 8 Oeste 0.2 -- -- 83
2017-08-29 11:00:00 16.5 2 Sur 11 Oeste 0.2 -- -- 87
2017-08-29 10:00:00 15.8 2 Sudoeste 5 Noroeste 0 -- -- 90
2017-08-29 09:00:00 14.6 0 Calma 12 Noroeste 0.2 -- -- 91
2017-08-29 08:00:00 14.1 2 Nordeste 6 Nordeste 0 -- -- 90
2017-08-29 07:00:00 13.7 0 Calma 4 Este 0 -- -- 88
2017-08-29 06:00:00 14 0 Calma 5 Este 0 -- -- 87
2017-08-29 05:00:00 14.4 0 Calma 2 Sudeste 0 -- -- 88
2017-08-29 04:00:00 15.2 0 Calma 6 Este 0 -- -- 86
2017-08-29 03:00:00 15.5 3 Este 5 Este 0 -- -- 85
2017-08-29 02:00:00 16.2 0 Calma 4 Sudeste 0 -- -- 83
2017-08-29 01:00:00 17 0 Calma 7 Oeste 0 -- -- 82
2017-08-29 00:00:00 17.3 4 Oeste 11 Noroeste 0 -- -- 83
2017-08-28 23:00:00 18 2 Noroeste 9 Noroeste 0 -- -- 78
2017-08-28 22:00:00 19.2 2 Sur 11 Sur 0 -- -- 71
2017-08-28 21:00:00 20.8 4 Sudoeste 15 Sudoeste 0 -- -- 64
2017-08-28 20:00:00 22.7 6 Sudoeste 19 Sur 0 -- -- 55
2017-08-28 19:00:00 23.3 8 Sur 27 Sudoeste 0 -- -- 53
2017-08-28 18:00:00 25.7 6 Sur 14 Sur 0.2 -- -- 52
2017-08-28 17:00:00 22.8 4 Sudoeste 14 Oeste 0 -- -- 62
2017-08-28 16:00:00 22.4 8 Sur 14 Sudoeste 0 -- -- 66
2017-08-28 15:00:00 20.6 2 Oeste 9 Noroeste 0 -- -- 69
2017-08-28 14:00:00 20 3 Oeste 8 Sudeste 0 -- -- 84
2017-08-28 13:00:00 19.9 2 Sur 12 Este 0.8 -- -- 78
2017-08-28 12:00:00 20.2 4 Sudoeste 12 Sudoeste 0.2 -- -- 75
2017-08-28 11:00:00 20.8 4 Sudoeste 12 Sudoeste 0 -- -- 79
2017-08-28 10:00:00 20.7 3 Sudoeste 8 Sur 0 -- -- 75
2017-08-28 09:00:00 20.5 0 Calma 6 Sur 0 -- -- 81
2017-08-28 08:00:00 20.5 2 Este 6 Este 0 -- -- 88
2017-08-28 07:00:00 20.4 3 Noroeste 8 Oeste 0 -- -- 91
2017-08-28 06:00:00 21 0 Calma 5 Sudoeste 0 -- -- 88
2017-08-28 05:00:00 21.3 0 Calma 11 Sudeste 0 -- -- 82
2017-08-28 04:00:00 21.6 5 Sudeste 33 Este 0 -- -- 81
2017-08-28 03:00:00 22 11 Este 25 Este 0 -- -- 79
2017-08-28 02:00:00 21.9 6 Sudoeste 21 Este 0 -- -- 79
2017-08-28 01:00:00 21.9 3 Norte 13 Este 0 -- -- 79
2017-08-28 00:00:00 21.8 11 Este 20 Este 0 -- -- 78
2017-08-27 23:00:00 22.2 11 Este 29 Este 0 -- -- 76
2017-08-27 22:00:00 22.8 7 Sudeste 17 Sudeste 0 -- -- 69
2017-08-27 21:00:00 23.3 3 Nordeste 12 Este 0 -- -- 74
2017-08-27 20:00:00 24.5 3 Este 18 Sudeste 0 -- -- 71
2017-08-27 19:00:00 26.1 10 Sudeste 26 Sudeste 0 -- -- 65
2017-08-27 18:00:00 28.5 9 Sudeste 30 Sudeste 0 -- -- 56
2017-08-27 17:00:00 29 12 Sudeste 30 Sudeste 0 -- -- 55
2017-08-27 16:00:00 28.9 13 Sur 25 Sudeste 0.2 -- -- 56
2017-08-27 15:00:00 27.5 10 Sur 35 Nordeste 0 -- -- 64
2017-08-27 14:00:00 23.2 19 Este 30 Este 1.8 -- -- 76
2017-08-27 13:00:00 23.6 4 Sudoeste 19 Oeste 0.8 -- -- 73
2017-08-27 12:00:00 25.6 7 Sudoeste 13 Sudoeste 0 -- -- 62
2017-08-27 11:00:00 23.1 4 Sudoeste 34 Este 0.2 -- -- 73
2017-08-27 10:00:00 23.3 13 Este 29 Este 0 -- -- 63
2017-08-27 09:00:00 23.5 3 Oeste 14 Este 0 -- -- 60
2017-08-27 08:00:00 23.6 8 Este 21 Este 0 -- -- 58
2017-08-27 07:00:00 23.7 4 Oeste 21 Sudeste 0 -- -- 57
2017-08-27 06:00:00 24.8 6 Sudeste 37 Este 0 -- -- 52
2017-08-27 05:00:00 24.2 4 Este 30 Este 0 -- -- 54
2017-08-27 04:00:00 24.2 8 Este 21 Sur 0 -- -- 53
2017-08-27 03:00:00 25.6 6 Sudeste 20 Este 0 -- -- 48
2017-08-27 02:00:00 25.9 11 Este 27 Sudeste 0 -- -- 47
2017-08-27 01:00:00 25 8 Sudeste 30 Este 0 -- -- 48
2017-08-27 00:00:00 24.9 16 Sudeste 40 Este 0 -- -- 53
2017-08-26 23:00:00 26 8 Sudeste 31 Este 0 -- -- 50
2017-08-26 22:00:00 24.9 9 Noroeste 19 Noroeste 0 -- -- 66
2017-08-26 21:00:00 26 3 Sudeste 9 Oeste 0 -- -- 66
2017-08-26 20:00:00 28.3 4 Oeste 14 Sur 0 -- -- 57
2017-08-26 19:00:00 30.3 6 Sur 15 Este 0 -- -- 50
2017-08-26 18:00:00 31.6 6 Sudeste 19 Sudoeste 0 -- -- 42
2017-08-26 17:00:00 34.2 10 Este 21 Sudeste 0 -- -- 35
2017-08-26 16:00:00 32.2 10 Sudeste 26 Este 0 -- -- 42
2017-08-26 15:00:00 32.2 8 Sudeste 21 Sur 0 -- -- 43
2017-08-26 14:00:00 32.2 10 Sudoeste 19 Sudoeste 0 -- -- 41
2017-08-26 13:00:00 31.9 10 Sudeste 20 Sudeste 0 -- -- 41
2017-08-26 12:00:00 30.4 9 Sudeste 23 Sur 0 -- -- 37
2017-08-26 11:00:00 28.7 6 Este 15 Sudeste 0 -- -- 35
2017-08-26 10:00:00 25.7 5 Oeste 17 Nordeste 0 -- -- 36
2017-08-26 09:00:00 24.7 4 Sur 18 Este 0 -- -- 35
2017-08-26 08:00:00 23.7 3 Sudeste 21 Este 0 -- -- 36
2017-08-26 07:00:00 23.7 5 Nordeste 22 Este 0 -- -- 41
2017-08-26 06:00:00 24.3 12 Este 21 Este 0 -- -- 40
2017-08-26 05:00:00 24.4 6 Este 15 Sudeste 0 -- -- 39
2017-08-26 04:00:00 24.5 8 Nordeste 18 Este 0 -- -- 46
2017-08-26 03:00:00 24.3 6 Este 18 Este 0 -- -- 48
2017-08-26 02:00:00 25 14 Este 21 Este 0 -- -- 45
2017-08-26 01:00:00 24.8 3 Oeste 22 Nordeste 0 -- -- 55
2017-08-26 00:00:00 24.1 3 Este 6 Este 0 -- -- 62